createdAt,value
2023-06-02T00:01:59.685Z,63.91
2023-06-02T00:04:32.160Z,63.54
2023-06-02T00:07:05.667Z,69.93
2023-06-02T00:09:45.483Z,76.16
2023-06-02T00:12:16.199Z,76.66
2023-06-02T00:14:47.167Z,76.46
2023-06-02T00:17:21.202Z,76.73
2023-06-02T00:19:53.465Z,77.54
2023-06-02T00:22:24.675Z,77.97
2023-06-02T00:24:55.554Z,79.21
2023-06-02T00:27:26.091Z,79.53
2023-06-02T00:29:57.255Z,78.62
2023-06-02T00:32:28.333Z,78.61
2023-06-02T00:34:59.323Z,78.73
2023-06-02T00:37:30.766Z,77.59
2023-06-02T00:40:02.004Z,77.19
2023-06-02T00:42:33.149Z,77.05
2023-06-02T00:45:04.215Z,77.59
2023-06-02T00:47:35.093Z,77.50
2023-06-02T00:50:07.363Z,77.41
2023-06-02T00:52:42.391Z,77.02
2023-06-02T00:55:13.528Z,77.01
2023-06-02T00:57:44.550Z,73.50
2023-06-02T01:00:16.885Z,73.54
2023-06-02T01:02:48.294Z,72.94
2023-06-02T01:05:21.878Z,72.61
2023-06-02T01:08:01.107Z,72.31
2023-06-02T01:10:33.030Z,72.62
2023-06-02T01:13:06.184Z,72.79
2023-06-02T01:15:37.072Z,72.39
2023-06-02T01:18:15.323Z,72.55
2023-06-02T01:20:59.982Z,75.41
2023-06-02T01:23:54.635Z,74.70
2023-06-02T01:26:31.093Z,74.61
2023-06-02T01:29:01.806Z,74.42
2023-06-02T01:31:49.467Z,74.34
2023-06-02T01:34:35.388Z,74.25
2023-06-02T01:37:07.472Z,74.23
2023-06-02T01:39:40.380Z,74.21
2023-06-02T01:42:13.647Z,74.08
2023-06-02T01:44:46.197Z,74.21
2023-06-02T01:47:17.718Z,74.24
2023-06-02T01:49:48.415Z,74.20
2023-06-02T01:52:18.902Z,74.36
2023-06-02T01:54:51.042Z,74.06
2023-06-02T01:57:21.765Z,74.26
2023-06-02T01:59:52.673Z,74.22
2023-06-02T02:02:23.607Z,74.11
2023-06-02T02:04:53.983Z,73.98
2023-06-02T02:07:26.395Z,74.23
2023-06-02T02:09:57.053Z,73.60
2023-06-02T02:12:27.762Z,73.88
2023-06-02T02:14:59.968Z,73.84
2023-06-02T02:17:31.057Z,72.79
2023-06-02T02:20:01.815Z,72.67
2023-06-02T02:22:32.673Z,72.36
2023-06-02T02:25:03.407Z,72.38
2023-06-02T02:27:33.979Z,72.22
2023-06-02T02:30:08.026Z,72.02
2023-06-02T02:32:44.319Z,71.73
2023-06-02T02:35:16.097Z,71.80
2023-06-02T02:37:48.780Z,72.36
2023-06-02T02:40:23.884Z,72.62
2023-06-02T02:42:54.696Z,72.73
2023-06-02T02:45:25.276Z,72.74
2023-06-02T02:47:56.995Z,72.93
2023-06-02T02:50:28.158Z,72.63
2023-06-02T02:52:59.298Z,72.70
2023-06-02T02:55:30.620Z,72.87
2023-06-02T02:58:03.305Z,72.65
2023-06-02T03:00:34.592Z,71.74
2023-06-02T03:03:05.656Z,72.46
2023-06-02T03:05:37.174Z,71.31
2023-06-02T03:08:09.703Z,70.91
2023-06-02T03:10:40.578Z,70.69
2023-06-02T03:13:11.321Z,70.46
2023-06-02T03:15:43.598Z,70.17
2023-06-02T03:18:17.090Z,70.00
2023-06-02T03:20:51.190Z,69.83
2023-06-02T03:23:22.396Z,69.60
2023-06-02T03:25:54.138Z,69.91
2023-06-02T03:28:25.425Z,69.38
2023-06-02T03:30:56.685Z,69.33
2023-06-02T03:33:28.373Z,69.25
2023-06-02T03:35:59.292Z,69.43
2023-06-02T03:38:31.235Z,69.00
2023-06-02T03:41:01.973Z,68.97
2023-06-02T03:43:32.975Z,68.92
2023-06-02T03:46:04.174Z,68.99
2023-06-02T03:48:35.797Z,68.98
2023-06-02T03:51:07.818Z,68.65
2023-06-02T03:53:40.362Z,68.78
2023-06-02T03:56:11.462Z,68.37
2023-06-02T03:58:42.245Z,68.10
2023-06-02T04:01:14.643Z,68.20
2023-06-02T04:03:47.491Z,68.21
2023-06-02T04:06:19.361Z,68.00
2023-06-02T04:08:51.004Z,67.88
2023-06-02T04:11:24.847Z,67.76
2023-06-02T04:13:57.836Z,67.96
2023-06-02T04:16:28.819Z,67.67
2023-06-02T04:18:59.464Z,67.63
2023-06-02T04:21:31.653Z,67.73
2023-06-02T04:24:02.785Z,67.71
2023-06-02T04:26:33.562Z,67.47
2023-06-02T04:29:04.364Z,67.30
2023-06-02T04:31:48.135Z,67.03
2023-06-02T04:34:28.582Z,67.30
2023-06-02T04:36:59.436Z,67.25
2023-06-02T04:39:30.159Z,67.22
2023-06-02T04:42:01.964Z,67.10
2023-06-02T04:44:32.990Z,67.14
2023-06-02T04:47:04.704Z,66.76
2023-06-02T04:49:35.603Z,67.06
2023-06-02T04:52:10.649Z,66.98
2023-06-02T04:54:45.012Z,66.36
2023-06-02T04:57:17.676Z,66.78
2023-06-02T04:59:48.705Z,67.41
2023-06-02T05:02:20.806Z,67.79
2023-06-02T05:04:51.774Z,68.45
2023-06-02T05:07:22.775Z,68.61
2023-06-02T05:09:53.577Z,67.77
2023-06-02T05:12:25.146Z,68.86
2023-06-02T05:14:57.320Z,67.53
2023-06-02T05:17:31.756Z,65.33
2023-06-02T05:20:05.524Z,63.75
2023-06-02T05:22:36.277Z,62.09
2023-06-02T05:25:11.191Z,61.66
2023-06-02T05:27:43.798Z,60.42
2023-06-02T05:30:16.965Z,59.87
2023-06-02T05:32:48.831Z,58.95
2023-06-02T05:35:20.026Z,58.33
2023-06-02T05:37:50.841Z,57.49
2023-06-02T05:40:24.898Z,56.58
2023-06-02T05:42:55.774Z,56.17
2023-06-02T05:45:26.528Z,55.60
2023-06-02T05:47:58.605Z,54.90
2023-06-02T05:50:29.506Z,54.56
2023-06-02T05:53:00.531Z,53.83
2023-06-02T05:55:32.267Z,53.29
2023-06-02T05:58:04.302Z,53.02
2023-06-02T06:00:35.206Z,52.55
2023-06-02T06:03:06.320Z,52.18
2023-06-02T06:05:40.283Z,52.08
2023-06-02T06:08:11.108Z,51.67
2023-06-02T06:10:45.018Z,51.69
2023-06-02T06:13:19.311Z,50.95
2023-06-02T06:15:52.228Z,50.41
2023-06-02T06:18:23.064Z,50.32
2023-06-02T06:20:54.383Z,50.19
2023-06-02T06:23:27.788Z,49.79
2023-06-02T06:25:58.258Z,50.17
2023-06-02T06:28:28.985Z,49.27
2023-06-02T06:31:02.947Z,48.34
2023-06-02T06:33:33.815Z,48.62
2023-06-02T06:36:05.165Z,48.80
2023-06-02T06:38:36.099Z,48.28
2023-06-02T06:41:07.642Z,47.64
2023-06-02T06:43:38.749Z,47.69
2023-06-02T06:46:16.814Z,46.94
2023-06-02T06:48:50.150Z,47.07
2023-06-02T06:51:22.652Z,46.83
2023-06-02T06:53:53.131Z,46.33
2023-06-02T06:56:24.232Z,46.07
2023-06-02T06:58:55.556Z,46.20
2023-06-02T07:01:26.601Z,45.91
2023-06-02T07:03:57.550Z,46.78
2023-06-02T07:06:28.197Z,46.75
2023-06-02T07:08:59.266Z,46.22
2023-06-02T07:11:30.129Z,45.99
2023-06-02T07:14:14.800Z,45.98
2023-06-02T07:16:51.977Z,45.19
2023-06-02T07:19:23.769Z,45.34
2023-06-02T07:21:55.349Z,45.31
2023-06-02T07:24:26.244Z,45.37
2023-06-02T07:26:59.294Z,45.19
2023-06-02T07:29:29.988Z,45.13
2023-06-02T07:32:00.807Z,45.14
2023-06-02T07:34:31.658Z,44.91
2023-06-02T07:37:04.738Z,44.57
2023-06-02T07:39:35.512Z,44.82
2023-06-02T07:42:06.300Z,44.57
2023-06-02T07:44:37.156Z,45.00
2023-06-02T07:47:09.728Z,44.08
2023-06-02T07:49:40.574Z,43.90
2023-06-02T07:52:11.228Z,43.37
2023-06-02T07:54:42.693Z,43.42
2023-06-02T07:57:13.521Z,43.17
2023-06-02T07:59:44.930Z,42.96
2023-06-02T08:02:15.928Z,42.95
2023-06-02T08:04:46.832Z,42.68
2023-06-02T08:07:17.926Z,42.77
2023-06-02T08:09:48.605Z,43.54
2023-06-02T08:12:19.184Z,44.85
2023-06-02T08:14:50.037Z,44.74
2023-06-02T08:17:21.097Z,44.70
2023-06-02T08:19:51.832Z,44.28
2023-06-02T08:22:22.851Z,44.74
2023-06-02T08:24:54.689Z,44.68
2023-06-02T08:27:26.617Z,44.48
2023-06-02T08:30:00.666Z,43.80
2023-06-02T08:32:32.426Z,43.68
2023-06-02T08:35:06.079Z,43.86
2023-06-02T08:37:36.847Z,43.75
2023-06-02T08:40:08.353Z,43.54
2023-06-02T08:42:39.309Z,43.63
2023-06-02T08:45:10.671Z,43.18
2023-06-02T08:47:46.077Z,43.34
2023-06-02T08:50:18.193Z,43.21
2023-06-02T08:52:49.371Z,43.86
2023-06-02T08:55:20.213Z,43.37
2023-06-02T08:57:51.006Z,43.34
2023-06-02T09:00:22.562Z,43.54
2023-06-02T09:02:53.759Z,43.06
2023-06-02T09:05:24.737Z,43.76
2023-06-02T09:08:11.481Z,43.75
2023-06-02T09:10:44.432Z,43.48
2023-06-02T09:16:12.551Z,43.36
2023-06-02T09:18:59.086Z,43.16
2023-06-02T09:21:40.105Z,43.32
2023-06-02T09:24:14.010Z,43.24
2023-06-02T09:26:54.453Z,43.36
2023-06-02T09:29:25.377Z,43.21
2023-06-02T09:31:59.221Z,42.97
2023-06-02T09:34:38.554Z,43.14
2023-06-02T09:37:14.103Z,44.53
2023-06-02T09:39:51.640Z,46.13
2023-06-02T09:42:25.746Z,45.61
2023-06-02T09:45:10.595Z,45.01
2023-06-02T09:47:44.495Z,44.74
2023-06-02T09:50:38.396Z,44.36
2023-06-02T09:53:10.994Z,44.19
2023-06-02T09:55:42.279Z,44.12
2023-06-02T09:58:14.275Z,44.01
2023-06-02T10:00:45.511Z,43.61
2023-06-02T10:03:16.372Z,43.50
2023-06-02T10:06:03.361Z,43.17
2023-06-02T10:08:40.314Z,43.52
2023-06-02T10:11:34.713Z,44.87
2023-06-02T10:14:31.151Z,46.42
2023-06-02T10:17:27.446Z,47.53
2023-06-02T10:20:25.410Z,48.56
2023-06-02T10:23:31.143Z,49.51
2023-06-02T10:26:25.470Z,58.81
2023-06-02T10:28:57.557Z,55.93
2023-06-02T10:31:34.093Z,55.95
2023-06-02T10:34:05.637Z,55.54
2023-06-02T10:37:04.002Z,57.68
2023-06-02T10:39:43.865Z,57.94
2023-06-02T10:42:16.638Z,56.25
2023-06-02T10:44:50.033Z,57.08
2023-06-02T10:47:21.183Z,61.66
2023-06-02T10:50:04.719Z,62.43
2023-06-02T10:52:58.068Z,63.51
2023-06-02T10:55:36.040Z,64.09
2023-06-02T10:58:14.153Z,60.91
2023-06-02T11:00:49.749Z,60.47
2023-06-02T11:03:23.051Z,60.44
2023-06-02T11:05:56.646Z,60.34
2023-06-02T11:08:30.895Z,61.16
2023-06-02T11:11:02.989Z,60.30
2023-06-02T11:13:53.533Z,60.25
2023-06-02T11:16:24.408Z,60.74
2023-06-02T11:18:54.895Z,60.72
2023-06-02T11:21:26.695Z,61.46
2023-06-02T11:23:57.534Z,61.72
2023-06-02T11:26:29.415Z,61.48
2023-06-02T11:29:17.221Z,63.51
2023-06-02T11:31:52.293Z,63.58
2023-06-02T11:34:23.085Z,62.47
2023-06-02T11:36:54.205Z,62.50
2023-06-02T11:39:24.845Z,62.53
2023-06-02T11:41:59.612Z,63.99
2023-06-02T11:44:30.414Z,63.31
2023-06-02T11:47:01.139Z,63.21
2023-06-02T11:49:41.156Z,65.03
2023-06-02T11:52:13.341Z,63.79
2023-06-02T11:54:54.958Z,64.64
2023-06-02T11:57:30.261Z,66.42
2023-06-02T12:00:21.894Z,65.28
2023-06-02T12:02:55.732Z,64.16
2023-06-02T12:05:37.616Z,65.18
2023-06-02T12:08:27.487Z,65.62
2023-06-02T12:11:00.418Z,64.42
2023-06-02T12:13:33.955Z,64.91
2023-06-02T12:16:23.854Z,66.05
2023-06-02T12:18:57.088Z,64.32
2023-06-02T12:21:30.298Z,64.75
2023-06-02T12:24:01.571Z,65.19
2023-06-02T12:26:45.400Z,68.25
2023-06-02T12:29:17.309Z,68.72
2023-06-02T12:31:47.820Z,70.23
2023-06-02T12:34:19.552Z,68.32
2023-06-02T12:36:50.234Z,67.08
2023-06-02T12:39:21.573Z,66.60
2023-06-02T12:41:52.571Z,66.35
2023-06-02T12:44:23.296Z,66.24
2023-06-02T12:46:56.271Z,66.03
2023-06-02T12:49:27.510Z,66.17
2023-06-02T12:51:58.461Z,66.27
2023-06-02T12:54:29.153Z,66.35
2023-06-02T12:57:00.173Z,66.48
2023-06-02T12:59:30.784Z,66.01
2023-06-02T13:02:02.003Z,68.65
2023-06-02T13:04:34.992Z,70.11
2023-06-02T13:07:09.768Z,71.45
2023-06-02T13:09:40.767Z,71.16
2023-06-02T13:12:12.677Z,68.63
2023-06-02T13:14:43.457Z,67.49
2023-06-02T13:17:14.350Z,65.58
2023-06-02T13:19:49.090Z,64.51
2023-06-02T13:22:20.102Z,63.18
2023-06-02T13:24:51.236Z,62.80
2023-06-02T13:27:30.540Z,60.87
2023-06-02T13:30:07.116Z,60.04
2023-06-02T13:32:38.022Z,58.99
2023-06-02T13:35:10.430Z,58.24
2023-06-02T13:37:42.583Z,57.49
2023-06-02T13:40:13.835Z,57.58
2023-06-02T13:42:44.343Z,57.05
2023-06-02T13:45:15.506Z,56.63
2023-06-02T13:47:46.016Z,56.10
2023-06-02T13:50:17.157Z,55.97
2023-06-02T13:52:47.969Z,55.93
2023-06-02T13:55:19.681Z,55.19
2023-06-02T13:57:50.427Z,55.78
2023-06-02T14:00:21.565Z,56.17
2023-06-02T14:02:52.192Z,55.95
2023-06-02T14:05:22.911Z,57.00
2023-06-02T14:07:54.313Z,55.94
2023-06-02T14:10:25.462Z,56.80
2023-06-02T14:12:56.656Z,57.87
2023-06-02T14:15:27.420Z,57.27
2023-06-02T14:17:58.182Z,57.11
2023-06-02T14:20:29.131Z,56.37
2023-06-02T14:23:00.301Z,55.80
2023-06-02T14:25:30.829Z,55.23
2023-06-02T14:28:01.699Z,56.57
2023-06-02T14:30:32.425Z,55.23
2023-06-02T14:33:03.347Z,54.95
2023-06-02T14:35:34.338Z,54.76
2023-06-02T14:38:05.070Z,54.10
2023-06-02T14:40:35.989Z,53.21
2023-06-02T14:43:08.918Z,52.71
2023-06-02T14:45:40.256Z,52.72
2023-06-02T14:48:11.553Z,52.00
2023-06-02T14:50:43.100Z,51.68
2023-06-02T14:53:13.891Z,51.39
2023-06-02T14:55:45.204Z,50.86
2023-06-02T14:58:17.288Z,50.60
2023-06-02T15:00:47.740Z,50.57
2023-06-02T15:03:18.476Z,50.03
2023-06-02T15:05:49.776Z,49.64
2023-06-02T15:08:20.811Z,49.45
2023-06-02T15:10:52.018Z,49.39
2023-06-02T15:13:22.737Z,49.17
2023-06-02T15:15:53.300Z,49.03
2023-06-02T15:18:24.016Z,49.00
2023-06-02T15:20:54.880Z,48.74
2023-06-02T15:23:25.620Z,48.88
2023-06-02T15:25:56.211Z,48.37
2023-06-02T15:28:27.366Z,48.76
2023-06-02T15:30:58.327Z,48.81
2023-06-02T15:33:29.194Z,48.32
2023-06-02T15:36:01.433Z,48.37
2023-06-02T15:38:32.453Z,48.16
2023-06-02T15:41:03.237Z,48.00
2023-06-02T15:43:34.137Z,48.71
2023-06-02T15:46:05.745Z,48.62
2023-06-02T15:48:38.270Z,48.42
2023-06-02T15:51:10.580Z,48.44
2023-06-02T15:53:42.475Z,48.30
2023-06-02T15:56:14.780Z,48.05
2023-06-02T15:58:45.565Z,47.52
2023-06-02T16:01:16.293Z,47.36
2023-06-02T16:03:47.925Z,47.11
2023-06-02T16:06:19.312Z,46.97
2023-06-02T16:08:50.474Z,47.02
2023-06-02T16:11:21.252Z,46.94
2023-06-02T16:13:52.340Z,46.96
2023-06-02T16:16:23.232Z,46.54
2023-06-02T16:18:54.064Z,46.51
2023-06-02T16:21:24.877Z,46.59
2023-06-02T16:23:55.915Z,47.35
2023-06-02T16:26:27.224Z,47.23
2023-06-02T16:29:01.821Z,46.61
2023-06-02T16:31:33.293Z,46.34
2023-06-02T16:34:04.113Z,46.84
2023-06-02T16:36:35.246Z,46.84
2023-06-02T16:39:06.096Z,46.21
2023-06-02T16:41:36.944Z,46.48
2023-06-02T16:44:07.745Z,46.54
2023-06-02T16:46:38.972Z,46.02
2023-06-02T16:49:12.231Z,45.96
2023-06-02T16:51:42.918Z,46.27
2023-06-02T16:54:15.279Z,45.95
2023-06-02T16:56:46.210Z,45.51
2023-06-02T16:59:17.148Z,45.78
2023-06-02T17:01:49.047Z,45.77
2023-06-02T17:04:20.677Z,45.98
2023-06-02T17:06:51.533Z,45.57
2023-06-02T17:09:23.251Z,45.79
2023-06-02T17:11:54.139Z,45.61
2023-06-02T17:14:26.095Z,45.86
2023-06-02T17:16:56.716Z,45.73
2023-06-02T17:19:27.072Z,45.42
2023-06-02T17:21:57.937Z,46.02
2023-06-02T17:24:28.785Z,46.00
2023-06-02T17:26:59.286Z,45.62
2023-06-02T17:29:29.878Z,46.14
2023-06-02T17:32:00.790Z,46.17
2023-06-02T17:34:31.823Z,45.73
2023-06-02T17:37:02.282Z,46.02
2023-06-02T17:39:33.131Z,45.97
2023-06-02T17:42:04.359Z,45.77
2023-06-02T17:44:36.700Z,45.39
2023-06-02T17:47:07.946Z,46.06
2023-06-02T17:49:39.199Z,45.82
2023-06-02T17:52:10.709Z,45.51
2023-06-02T17:54:41.577Z,45.36
2023-06-02T17:57:13.096Z,45.74
2023-06-02T17:59:44.721Z,44.98
2023-06-02T18:02:15.756Z,45.43
2023-06-02T18:04:46.202Z,45.28
2023-06-02T18:07:16.970Z,45.19
2023-06-02T18:09:50.754Z,45.34
2023-06-02T18:12:21.637Z,45.54
2023-06-02T18:14:52.379Z,45.22
2023-06-02T18:17:23.367Z,45.46
2023-06-02T18:19:54.515Z,45.45
2023-06-02T18:22:25.968Z,45.53
2023-06-02T18:24:56.596Z,45.78
2023-06-02T18:27:27.500Z,45.21
2023-06-02T18:29:57.824Z,45.56
2023-06-02T18:32:28.474Z,45.65
2023-06-02T18:34:59.040Z,45.74
2023-06-02T18:37:30.312Z,45.49
2023-06-02T18:40:01.083Z,45.88
2023-06-02T18:42:32.069Z,45.33
2023-06-02T18:45:02.855Z,46.06
2023-06-02T18:47:33.479Z,45.42
2023-06-02T18:50:05.715Z,45.16
2023-06-02T18:52:39.014Z,45.89
2023-06-02T18:55:10.892Z,45.90
2023-06-02T18:57:42.437Z,45.75
2023-06-02T19:00:14.670Z,45.48
2023-06-02T19:02:47.388Z,45.89
2023-06-02T19:05:18.735Z,45.49
2023-06-02T19:07:49.378Z,45.19
2023-06-02T19:10:20.141Z,45.85
2023-06-02T19:12:50.862Z,45.94
2023-06-02T19:15:21.556Z,45.69
2023-06-02T19:17:52.804Z,45.67
2023-06-02T19:20:24.333Z,45.14
2023-06-02T19:22:55.079Z,45.41
2023-06-02T19:25:25.855Z,45.16
2023-06-02T19:27:56.181Z,44.85
2023-06-02T19:30:26.928Z,44.82
2023-06-02T19:32:58.572Z,45.59
2023-06-02T19:35:29.253Z,45.29
2023-06-02T19:37:59.898Z,45.08
2023-06-02T19:40:30.860Z,44.93
2023-06-02T19:43:01.233Z,45.19
2023-06-02T19:45:32.405Z,44.91
2023-06-02T19:48:03.262Z,45.00
2023-06-02T19:50:34.270Z,45.10
2023-06-02T19:53:04.882Z,45.02
2023-06-02T19:55:35.538Z,44.57
2023-06-02T19:58:05.881Z,44.92
2023-06-02T20:00:36.786Z,44.50
2023-06-02T20:03:08.025Z,45.06
2023-06-02T20:05:38.883Z,44.55
2023-06-02T20:08:09.536Z,44.74
2023-06-02T20:10:40.451Z,44.87
2023-06-02T20:13:11.180Z,44.83
2023-06-02T20:15:42.069Z,44.99
2023-06-02T20:18:12.741Z,44.86
2023-06-02T20:20:43.246Z,44.32
2023-06-02T20:23:14.465Z,44.95
2023-06-02T20:25:45.302Z,44.71
2023-06-02T20:28:16.064Z,44.57
2023-06-02T20:30:48.514Z,44.26
2023-06-02T20:33:19.526Z,44.74
2023-06-02T20:35:50.038Z,44.48
2023-06-02T20:38:20.898Z,44.67
2023-06-02T20:40:51.566Z,44.54
2023-06-02T20:43:21.949Z,44.27
2023-06-02T20:45:53.698Z,44.77
2023-06-02T20:48:24.221Z,44.76
2023-06-02T20:50:54.889Z,44.30
2023-06-02T20:53:25.499Z,44.76
2023-06-02T20:55:55.881Z,45.00
2023-06-02T20:58:26.453Z,44.96
2023-06-02T21:00:56.991Z,45.13
2023-06-02T21:03:27.839Z,45.04
2023-06-02T21:05:58.657Z,44.49
2023-06-02T21:08:28.984Z,44.49
2023-06-02T21:10:59.976Z,44.53
2023-06-02T21:13:30.564Z,44.62
2023-06-02T21:16:00.913Z,44.99
2023-06-02T21:18:31.644Z,44.54
2023-06-02T21:21:02.510Z,44.93
2023-06-02T21:23:33.253Z,44.70
2023-06-02T21:26:04.170Z,45.12
2023-06-02T21:28:34.789Z,44.94
2023-06-02T21:31:05.631Z,44.73
2023-06-02T21:33:36.565Z,45.10
2023-06-02T21:36:08.504Z,44.81
2023-06-02T21:38:38.686Z,45.49
2023-06-02T21:41:09.152Z,45.09
2023-06-02T21:43:39.402Z,45.31
2023-06-02T21:46:10.495Z,45.08
2023-06-02T21:48:41.202Z,45.27
2023-06-02T21:51:12.071Z,44.97
2023-06-02T21:53:42.832Z,45.41
2023-06-02T21:56:13.572Z,44.93
2023-06-02T21:58:44.138Z,44.81
2023-06-02T22:01:15.318Z,44.24
2023-06-02T22:03:46.168Z,44.84
2023-06-02T22:06:17.079Z,44.20
2023-06-02T22:08:48.390Z,44.45
2023-06-02T22:11:22.563Z,44.07
2023-06-02T22:13:53.873Z,44.25
2023-06-02T22:16:24.699Z,44.21
2023-06-02T22:18:55.167Z,44.68
2023-06-02T22:21:47.798Z,43.90
2023-06-02T22:24:26.954Z,43.92
2023-06-02T22:26:58.888Z,44.55
2023-06-02T22:29:29.478Z,44.15
2023-06-02T22:32:00.209Z,43.86
2023-06-02T22:35:21.650Z,44.09
2023-06-02T22:37:55.249Z,44.03
2023-06-02T22:40:25.914Z,43.92
2023-06-02T22:42:56.437Z,44.16
2023-06-02T22:45:27.017Z,44.53
2023-06-02T22:47:57.874Z,44.27
2023-06-02T22:50:29.021Z,44.46
2023-06-02T22:52:59.816Z,44.50
2023-06-02T22:55:30.295Z,43.83
2023-06-02T22:58:00.965Z,44.27
2023-06-02T23:00:32.104Z,43.98
2023-06-02T23:03:03.000Z,44.98
2023-06-02T23:05:33.617Z,45.35
2023-06-02T23:08:04.345Z,45.62
2023-06-02T23:10:35.961Z,46.26
2023-06-02T23:13:07.069Z,46.46
2023-06-02T23:15:37.711Z,47.07
2023-06-02T23:18:08.166Z,47.68
2023-06-02T23:20:38.755Z,48.45
2023-06-02T23:23:09.191Z,48.85
2023-06-02T23:25:39.843Z,49.27
2023-06-02T23:28:10.899Z,49.66
2023-06-02T23:30:41.659Z,49.29
2023-06-02T23:33:12.956Z,49.70
2023-06-02T23:35:44.144Z,50.27
2023-06-02T23:38:14.836Z,51.30
2023-06-02T23:40:45.280Z,51.06
2023-06-02T23:43:16.230Z,52.25
2023-06-02T23:45:46.999Z,51.90
2023-06-02T23:48:17.856Z,52.91
2023-06-02T23:50:48.247Z,53.23
2023-06-02T23:53:21.587Z,53.65
2023-06-02T23:55:52.478Z,53.95
2023-06-02T23:58:23.186Z,54.38
